sensor_id;sensor_type;location;lat;lon;timestamp;P1;durP1;ratioP1;P2;durP2;ratioP2
58244;SDS011;44550;43.864;25.986;2022-08-05T00:02:17;6.82;;;3.90;;
58244;SDS011;44550;43.864;25.986;2022-08-05T00:06:17;9.40;;;5.05;;
58244;SDS011;44550;43.864;25.986;2022-08-05T00:10:29;4.47;;;3.90;;
58244;SDS011;44550;43.864;25.986;2022-08-05T00:14:28;4.55;;;3.83;;
58244;SDS011;44550;43.864;25.986;2022-08-05T00:18:30;6.60;;;4.70;;
58244;SDS011;44550;43.864;25.986;2022-08-05T00:22:30;6.53;;;4.95;;
58244;SDS011;44550;43.864;25.986;2022-08-05T00:26:30;5.90;;;4.65;;
58244;SDS011;44550;43.864;25.986;2022-08-05T00:30:33;5.13;;;3.85;;
58244;SDS011;44550;43.864;25.986;2022-08-05T00:34:35;5.07;;;4.35;;
58244;SDS011;44550;43.864;25.986;2022-08-05T00:38:54;7.75;;;4.30;;
58244;SDS011;44550;43.864;25.986;2022-08-05T00:42:56;6.22;;;4.30;;
58244;SDS011;44550;43.864;25.986;2022-08-05T00:46:58;5.07;;;4.05;;
58244;SDS011;44550;43.864;25.986;2022-08-05T00:51:04;4.30;;;3.90;;
58244;SDS011;44550;43.864;25.986;2022-08-05T00:55:23;4.55;;;3.80;;
58244;SDS011;44550;43.864;25.986;2022-08-05T00:59:39;9.80;;;3.92;;
58244;SDS011;44550;43.864;25.986;2022-08-05T01:03:41;7.05;;;4.25;;
58244;SDS011;44550;43.864;25.986;2022-08-05T01:07:47;4.60;;;4.18;;
58244;SDS011;44550;43.864;25.986;2022-08-05T01:12:08;6.55;;;4.35;;
58244;SDS011;44550;43.864;25.986;2022-08-05T01:16:18;7.90;;;4.57;;
58244;SDS011;44550;43.864;25.986;2022-08-05T01:20:29;5.47;;;4.18;;
58244;SDS011;44550;43.864;25.986;2022-08-05T01:24:43;5.05;;;3.53;;
58244;SDS011;44550;43.864;25.986;2022-08-05T01:28:56;8.70;;;5.23;;
58244;SDS011;44550;43.864;25.986;2022-08-05T01:33:01;10.50;;;4.57;;
58244;SDS011;44550;43.864;25.986;2022-08-05T01:37:07;9.48;;;4.07;;
58244;SDS011;44550;43.864;25.986;2022-08-05T01:41:21;5.63;;;4.05;;
58244;SDS011;44550;43.864;25.986;2022-08-05T01:45:25;7.70;;;3.95;;
58244;SDS011;44550;43.864;25.986;2022-08-05T01:49:39;4.05;;;3.70;;
58244;SDS011;44550;43.864;25.986;2022-08-05T01:53:58;5.10;;;3.80;;
58244;SDS011;44550;43.864;25.986;2022-08-05T01:58:06;4.78;;;4.10;;
58244;SDS011;44550;43.864;25.986;2022-08-05T02:02:14;8.32;;;3.75;;
58244;SDS011;44550;43.864;25.986;2022-08-05T02:06:24;5.13;;;3.83;;
58244;SDS011;44550;43.864;25.986;2022-08-05T02:10:35;5.10;;;4.55;;
58244;SDS011;44550;43.864;25.986;2022-08-05T02:14:46;6.70;;;4.13;;
58244;SDS011;44550;43.864;25.986;2022-08-05T02:18:55;6.45;;;3.85;;
58244;SDS011;44550;43.864;25.986;2022-08-05T02:23:04;6.93;;;4.15;;
58244;SDS011;44550;43.864;25.986;2022-08-05T02:27:13;5.45;;;4.28;;
58244;SDS011;44550;43.864;25.986;2022-08-05T02:31:26;4.90;;;4.13;;
58244;SDS011;44550;43.864;25.986;2022-08-05T02:35:33;5.22;;;4.28;;
58244;SDS011;44550;43.864;25.986;2022-08-05T02:39:56;5.03;;;4.63;;
58244;SDS011;44550;43.864;25.986;2022-08-05T02:43:59;12.93;;;6.25;;
58244;SDS011;44550;43.864;25.986;2022-08-05T02:48:09;6.00;;;4.03;;
58244;SDS011;44550;43.864;25.986;2022-08-05T02:52:16;4.32;;;3.95;;
58244;SDS011;44550;43.864;25.986;2022-08-05T02:56:56;9.23;;;4.10;;
58244;SDS011;44550;43.864;25.986;2022-08-05T03:01:47;5.60;;;4.88;;
58244;SDS011;44550;43.864;25.986;2022-08-05T03:05:50;5.53;;;5.03;;
58244;SDS011;44550;43.864;25.986;2022-08-05T03:10:12;8.90;;;4.18;;
58244;SDS011;44550;43.864;25.986;2022-08-05T03:14:26;8.23;;;4.60;;
58244;SDS011;44550;43.864;25.986;2022-08-05T03:18:29;7.35;;;4.80;;
58244;SDS011;44550;43.864;25.986;2022-08-05T03:22:29;13.80;;;4.97;;
58244;SDS011;44550;43.864;25.986;2022-08-05T03:26:32;4.45;;;4.05;;
58244;SDS011;44550;43.864;25.986;2022-08-05T03:30:33;6.72;;;4.22;;
58244;SDS011;44550;43.864;25.986;2022-08-05T03:34:37;9.85;;;4.25;;
58244;SDS011;44550;43.864;25.986;2022-08-05T03:38:39;14.38;;;6.50;;
58244;SDS011;44550;43.864;25.986;2022-08-05T03:42:51;9.02;;;5.45;;
58244;SDS011;44550;43.864;25.986;2022-08-05T03:46:51;12.45;;;6.05;;
58244;SDS011;44550;43.864;25.986;2022-08-05T03:50:51;10.90;;;6.95;;
58244;SDS011;44550;43.864;25.986;2022-08-05T03:55:21;6.75;;;5.85;;
58244;SDS011;44550;43.864;25.986;2022-08-05T03:59:48;10.40;;;5.57;;
58244;SDS011;44550;43.864;25.986;2022-08-05T04:08:17;9.32;;;5.90;;
58244;SDS011;44550;43.864;25.986;2022-08-05T04:12:32;7.80;;;5.88;;
58244;SDS011;44550;43.864;25.986;2022-08-05T04:16:34;15.60;;;5.53;;
58244;SDS011;44550;43.864;25.986;2022-08-05T04:20:36;10.23;;;4.63;;
58244;SDS011;44550;43.864;25.986;2022-08-05T04:24:40;9.82;;;5.07;;
58244;SDS011;44550;43.864;25.986;2022-08-05T04:28:49;5.15;;;4.75;;
58244;SDS011;44550;43.864;25.986;2022-08-05T04:32:52;19.90;;;6.82;;
58244;SDS011;44550;43.864;25.986;2022-08-05T04:36:56;13.48;;;6.43;;
58244;SDS011;44550;43.864;25.986;2022-08-05T04:40:56;13.07;;;5.20;;
58244;SDS011;44550;43.864;25.986;2022-08-05T04:44:59;7.28;;;4.82;;
58244;SDS011;44550;43.864;25.986;2022-08-05T04:49:01;10.23;;;6.30;;
58244;SDS011;44550;43.864;25.986;2022-08-05T04:53:08;9.45;;;5.97;;
58244;SDS011;44550;43.864;25.986;2022-08-05T04:57:10;8.10;;;5.38;;
58244;SDS011;44550;43.864;25.986;2022-08-05T05:01:09;12.68;;;5.00;;
58244;SDS011;44550;43.864;25.986;2022-08-05T05:05:11;12.48;;;5.60;;
58244;SDS011;44550;43.864;25.986;2022-08-05T05:09:22;9.18;;;5.60;;
58244;SDS011;44550;43.864;25.986;2022-08-05T05:13:22;10.65;;;5.70;;
58244;SDS011;44550;43.864;25.986;2022-08-05T05:17:35;10.43;;;4.85;;
58244;SDS011;44550;43.864;25.986;2022-08-05T05:21:55;8.43;;;4.07;;
58244;SDS011;44550;43.864;25.986;2022-08-05T05:26:02;14.20;;;5.25;;
58244;SDS011;44550;43.864;25.986;2022-08-05T05:30:03;10.35;;;5.20;;
58244;SDS011;44550;43.864;25.986;2022-08-05T05:34:11;13.77;;;5.80;;
58244;SDS011;44550;43.864;25.986;2022-08-05T05:38:27;23.95;;;6.85;;
58244;SDS011;44550;43.864;25.986;2022-08-05T05:42:26;21.58;;;7.18;;
58244;SDS011;44550;43.864;25.986;2022-08-05T05:46:26;17.35;;;7.32;;
58244;SDS011;44550;43.864;25.986;2022-08-05T05:50:31;18.88;;;6.28;;
58244;SDS011;44550;43.864;25.986;2022-08-05T05:54:42;17.85;;;6.88;;
58244;SDS011;44550;43.864;25.986;2022-08-05T05:58:47;24.52;;;9.57;;
58244;SDS011;44550;43.864;25.986;2022-08-05T06:02:49;23.45;;;8.80;;
58244;SDS011;44550;43.864;25.986;2022-08-05T06:07:24;72.43;;;23.48;;
58244;SDS011;44550;43.864;25.986;2022-08-05T06:11:49;39.08;;;11.93;;
58244;SDS011;44550;43.864;25.986;2022-08-05T06:16:38;25.08;;;7.63;;
58244;SDS011;44550;43.864;25.986;2022-08-05T06:20:42;9.15;;;5.40;;
58244;SDS011;44550;43.864;25.986;2022-08-05T06:24:45;11.15;;;5.70;;
58244;SDS011;44550;43.864;25.986;2022-08-05T06:28:51;10.57;;;5.15;;
58244;SDS011;44550;43.864;25.986;2022-08-05T06:38:15;34.70;;;12.18;;
58244;SDS011;44550;43.864;25.986;2022-08-05T06:42:32;8.20;;;4.55;;
58244;SDS011;44550;43.864;25.986;2022-08-05T06:46:38;7.10;;;4.88;;
58244;SDS011;44550;43.864;25.986;2022-08-05T06:50:38;8.50;;;5.10;;
58244;SDS011;44550;43.864;25.986;2022-08-05T06:54:38;8.77;;;4.68;;
58244;SDS011;44550;43.864;25.986;2022-08-05T06:58:37;6.18;;;4.40;;
58244;SDS011;44550;43.864;25.986;2022-08-05T07:02:47;8.98;;;5.53;;
58244;SDS011;44550;43.864;25.986;2022-08-05T07:06:49;7.32;;;4.50;;
58244;SDS011;44550;43.864;25.986;2022-08-05T07:10:49;5.00;;;4.43;;
58244;SDS011;44550;43.864;25.986;2022-08-05T07:14:53;5.38;;;4.82;;
58244;SDS011;44550;43.864;25.986;2022-08-05T07:19:32;6.30;;;5.03;;
58244;SDS011;44550;43.864;25.986;2022-08-05T07:23:52;10.07;;;6.03;;
58244;SDS011;44550;43.864;25.986;2022-08-05T07:27:57;11.80;;;5.78;;
58244;SDS011;44550;43.864;25.986;2022-08-05T07:32:03;13.57;;;6.30;;
58244;SDS011;44550;43.864;25.986;2022-08-05T07:36:06;17.20;;;7.28;;
58244;SDS011;44550;43.864;25.986;2022-08-05T07:40:17;5.45;;;4.85;;
58244;SDS011;44550;43.864;25.986;2022-08-05T07:44:29;5.75;;;4.07;;
58244;SDS011;44550;43.864;25.986;2022-08-05T07:48:30;5.90;;;4.57;;
58244;SDS011;44550;43.864;25.986;2022-08-05T07:52:52;5.05;;;4.25;;
58244;SDS011;44550;43.864;25.986;2022-08-05T07:56:52;19.17;;;6.30;;
58244;SDS011;44550;43.864;25.986;2022-08-05T08:01:10;6.30;;;3.58;;
58244;SDS011;44550;43.864;25.986;2022-08-05T08:05:11;8.43;;;4.13;;
58244;SDS011;44550;43.864;25.986;2022-08-05T08:09:19;10.63;;;4.13;;
58244;SDS011;44550;43.864;25.986;2022-08-05T08:13:25;4.32;;;3.65;;
58244;SDS011;44550;43.864;25.986;2022-08-05T08:17:25;4.68;;;3.60;;
58244;SDS011;44550;43.864;25.986;2022-08-05T08:21:26;4.10;;;3.70;;
58244;SDS011;44550;43.864;25.986;2022-08-05T08:25:29;7.82;;;4.00;;
58244;SDS011;44550;43.864;25.986;2022-08-05T08:29:51;3.40;;;3.08;;
58244;SDS011;44550;43.864;25.986;2022-08-05T08:34:10;5.90;;;3.70;;
58244;SDS011;44550;43.864;25.986;2022-08-05T08:38:20;7.10;;;3.83;;
58244;SDS011;44550;43.864;25.986;2022-08-05T08:42:34;5.88;;;3.60;;
58244;SDS011;44550;43.864;25.986;2022-08-05T08:46:48;10.85;;;4.50;;
58244;SDS011;44550;43.864;25.986;2022-08-05T08:50:50;5.75;;;3.92;;
58244;SDS011;44550;43.864;25.986;2022-08-05T08:55:09;8.68;;;3.90;;
58244;SDS011;44550;43.864;25.986;2022-08-05T09:03:30;7.97;;;4.30;;
58244;SDS011;44550;43.864;25.986;2022-08-05T09:07:41;6.00;;;4.38;;
58244;SDS011;44550;43.864;25.986;2022-08-05T09:11:55;4.93;;;4.43;;
58244;SDS011;44550;43.864;25.986;2022-08-05T09:16:20;7.03;;;3.83;;
58244;SDS011;44550;43.864;25.986;2022-08-05T09:20:23;7.95;;;4.28;;
58244;SDS011;44550;43.864;25.986;2022-08-05T09:24:34;4.63;;;4.10;;
58244;SDS011;44550;43.864;25.986;2022-08-05T09:28:35;5.13;;;4.53;;
58244;SDS011;44550;43.864;25.986;2022-08-05T09:32:42;4.68;;;4.25;;
58244;SDS011;44550;43.864;25.986;2022-08-05T09:36:49;4.28;;;3.70;;
58244;SDS011;44550;43.864;25.986;2022-08-05T09:41:01;6.68;;;3.60;;
58244;SDS011;44550;43.864;25.986;2022-08-05T09:45:05;7.28;;;3.72;;
58244;SDS011;44550;43.864;25.986;2022-08-05T09:49:31;4.90;;;4.47;;
58244;SDS011;44550;43.864;25.986;2022-08-05T09:53:53;8.70;;;4.82;;
58244;SDS011;44550;43.864;25.986;2022-08-05T09:57:56;5.80;;;4.03;;
58244;SDS011;44550;43.864;25.986;2022-08-05T10:01:57;12.02;;;4.53;;
58244;SDS011;44550;43.864;25.986;2022-08-05T10:06:04;8.27;;;4.28;;
58244;SDS011;44550;43.864;25.986;2022-08-05T10:10:12;4.72;;;4.22;;
58244;SDS011;44550;43.864;25.986;2022-08-05T10:14:24;10.15;;;3.92;;
58244;SDS011;44550;43.864;25.986;2022-08-05T10:18:27;6.57;;;3.90;;
58244;SDS011;44550;43.864;25.986;2022-08-05T10:22:30;10.40;;;4.68;;
58244;SDS011;44550;43.864;25.986;2022-08-05T10:26:36;4.68;;;4.28;;
58244;SDS011;44550;43.864;25.986;2022-08-05T10:30:48;4.93;;;4.07;;
58244;SDS011;44550;43.864;25.986;2022-08-05T10:35:10;7.53;;;4.35;;
58244;SDS011;44550;43.864;25.986;2022-08-05T10:39:24;4.18;;;3.40;;
58244;SDS011;44550;43.864;25.986;2022-08-05T10:43:56;3.95;;;3.65;;
58244;SDS011;44550;43.864;25.986;2022-08-05T10:52:48;8.57;;;3.33;;
58244;SDS011;44550;43.864;25.986;2022-08-05T10:57:13;14.13;;;4.80;;
58244;SDS011;44550;43.864;25.986;2022-08-05T11:01:32;17.13;;;4.50;;
58244;SDS011;44550;43.864;25.986;2022-08-05T11:06:06;12.85;;;3.95;;
58244;SDS011;44550;43.864;25.986;2022-08-05T11:10:22;4.03;;;3.40;;
58244;SDS011;44550;43.864;25.986;2022-08-05T11:14:33;6.07;;;3.13;;
58244;SDS011;44550;43.864;25.986;2022-08-05T11:19:30;3.60;;;3.30;;
58244;SDS011;44550;43.864;25.986;2022-08-05T11:23:50;11.50;;;6.20;;
58244;SDS011;44550;43.864;25.986;2022-08-05T11:28:43;4.38;;;3.55;;
58244;SDS011;44550;43.864;25.986;2022-08-05T11:32:52;5.75;;;3.78;;
58244;SDS011;44550;43.864;25.986;2022-08-05T11:47:46;3.83;;;2.70;;
58244;SDS011;44550;43.864;25.986;2022-08-05T11:53:06;5.13;;;3.72;;
58244;SDS011;44550;43.864;25.986;2022-08-05T11:57:07;6.53;;;4.28;;
58244;SDS011;44550;43.864;25.986;2022-08-05T12:01:27;6.82;;;3.63;;
58244;SDS011;44550;43.864;25.986;2022-08-05T12:05:34;8.98;;;3.70;;
58244;SDS011;44550;43.864;25.986;2022-08-05T12:09:45;12.73;;;6.50;;
58244;SDS011;44550;43.864;25.986;2022-08-05T12:13:53;4.70;;;4.10;;
58244;SDS011;44550;43.864;25.986;2022-08-05T12:17:55;5.30;;;3.15;;
58244;SDS011;44550;43.864;25.986;2022-08-05T12:22:04;3.47;;;3.15;;
58244;SDS011;44550;43.864;25.986;2022-08-05T12:26:18;3.55;;;3.20;;
58244;SDS011;44550;43.864;25.986;2022-08-05T12:30:20;7.20;;;3.38;;
58244;SDS011;44550;43.864;25.986;2022-08-05T12:38:28;12.20;;;3.47;;
58244;SDS011;44550;43.864;25.986;2022-08-05T12:42:30;4.88;;;3.45;;
58244;SDS011;44550;43.864;25.986;2022-08-05T12:46:32;4.65;;;3.05;;
58244;SDS011;44550;43.864;25.986;2022-08-05T12:50:32;9.77;;;3.95;;
58244;SDS011;44550;43.864;25.986;2022-08-05T12:54:32;11.73;;;5.15;;
58244;SDS011;44550;43.864;25.986;2022-08-05T12:58:37;6.57;;;3.15;;
58244;SDS011;44550;43.864;25.986;2022-08-05T13:02:51;7.43;;;3.60;;
58244;SDS011;44550;43.864;25.986;2022-08-05T13:06:52;3.17;;;2.80;;
58244;SDS011;44550;43.864;25.986;2022-08-05T13:10:58;3.35;;;3.15;;
58244;SDS011;44550;43.864;25.986;2022-08-05T13:15:04;4.88;;;3.08;;
58244;SDS011;44550;43.864;25.986;2022-08-05T13:19:13;8.13;;;3.10;;
58244;SDS011;44550;43.864;25.986;2022-08-05T13:23:16;9.90;;;3.80;;
58244;SDS011;44550;43.864;25.986;2022-08-05T13:27:23;7.28;;;3.00;;
58244;SDS011;44550;43.864;25.986;2022-08-05T13:31:42;6.72;;;3.10;;
58244;SDS011;44550;43.864;25.986;2022-08-05T13:36:01;5.03;;;2.92;;
58244;SDS011;44550;43.864;25.986;2022-08-05T13:40:07;7.75;;;2.80;;
58244;SDS011;44550;43.864;25.986;2022-08-05T13:44:13;3.33;;;2.85;;
58244;SDS011;44550;43.864;25.986;2022-08-05T13:48:17;6.70;;;3.33;;
58244;SDS011;44550;43.864;25.986;2022-08-05T13:52:51;4.50;;;2.92;;
58244;SDS011;44550;43.864;25.986;2022-08-05T13:57:12;5.53;;;3.15;;
58244;SDS011;44550;43.864;25.986;2022-08-05T14:01:19;5.78;;;3.05;;
58244;SDS011;44550;43.864;25.986;2022-08-05T14:05:47;4.57;;;2.90;;
58244;SDS011;44550;43.864;25.986;2022-08-05T14:10:06;4.00;;;3.13;;
58244;SDS011;44550;43.864;25.986;2022-08-05T14:14:08;3.58;;;2.72;;
58244;SDS011;44550;43.864;25.986;2022-08-05T14:18:10;3.75;;;2.90;;
58244;SDS011;44550;43.864;25.986;2022-08-05T14:22:18;8.65;;;5.03;;
58244;SDS011;44550;43.864;25.986;2022-08-05T14:26:18;10.05;;;4.70;;
58244;SDS011;44550;43.864;25.986;2022-08-05T14:35:43;3.33;;;3.03;;
58244;SDS011;44550;43.864;25.986;2022-08-05T14:39:49;5.38;;;3.35;;
58244;SDS011;44550;43.864;25.986;2022-08-05T14:43:54;4.40;;;2.70;;
58244;SDS011;44550;43.864;25.986;2022-08-05T14:48:06;5.93;;;3.15;;
58244;SDS011;44550;43.864;25.986;2022-08-05T14:52:25;5.57;;;3.33;;
58244;SDS011;44550;43.864;25.986;2022-08-05T14:56:47;4.13;;;2.90;;
58244;SDS011;44550;43.864;25.986;2022-08-05T15:00:50;3.55;;;3.10;;
58244;SDS011;44550;43.864;25.986;2022-08-05T15:09:53;2.72;;;2.55;;
58244;SDS011;44550;43.864;25.986;2022-08-05T15:13:59;18.10;;;4.07;;
58244;SDS011;44550;43.864;25.986;2022-08-05T15:18:00;5.15;;;4.68;;
58244;SDS011;44550;43.864;25.986;2022-08-05T15:22:02;7.85;;;5.28;;
58244;SDS011;44550;43.864;25.986;2022-08-05T15:26:05;4.95;;;4.35;;
58244;SDS011;44550;43.864;25.986;2022-08-05T15:30:10;2.63;;;2.42;;
58244;SDS011;44550;43.864;25.986;2022-08-05T15:34:12;3.85;;;2.97;;
58244;SDS011;44550;43.864;25.986;2022-08-05T15:38:28;3.95;;;3.38;;
58244;SDS011;44550;43.864;25.986;2022-08-05T15:42:44;5.82;;;3.33;;
58244;SDS011;44550;43.864;25.986;2022-08-05T15:46:55;3.78;;;3.47;;
58244;SDS011;44550;43.864;25.986;2022-08-05T15:50:55;6.72;;;3.05;;
58244;SDS011;44550;43.864;25.986;2022-08-05T15:55:02;3.97;;;2.40;;
58244;SDS011;44550;43.864;25.986;2022-08-05T15:59:05;4.82;;;2.72;;
58244;SDS011;44550;43.864;25.986;2022-08-05T16:03:18;7.53;;;2.90;;
58244;SDS011;44550;43.864;25.986;2022-08-05T16:07:18;5.25;;;2.60;;
58244;SDS011;44550;43.864;25.986;2022-08-05T16:11:18;31.65;;;5.82;;
58244;SDS011;44550;43.864;25.986;2022-08-05T16:15:38;9.02;;;5.45;;
58244;SDS011;44550;43.864;25.986;2022-08-05T16:19:41;5.57;;;3.80;;
58244;SDS011;44550;43.864;25.986;2022-08-05T16:24:01;6.18;;;3.42;;
58244;SDS011;44550;43.864;25.986;2022-08-05T16:28:08;6.30;;;3.40;;
58244;SDS011;44550;43.864;25.986;2022-08-05T16:32:11;4.03;;;2.72;;
58244;SDS011;44550;43.864;25.986;2022-08-05T16:36:13;4.03;;;3.38;;
58244;SDS011;44550;43.864;25.986;2022-08-05T16:44:25;5.28;;;3.28;;
58244;SDS011;44550;43.864;25.986;2022-08-05T16:48:26;13.77;;;3.40;;
58244;SDS011;44550;43.864;25.986;2022-08-05T16:52:34;9.50;;;3.08;;
58244;SDS011;44550;43.864;25.986;2022-08-05T16:56:38;4.65;;;2.90;;
58244;SDS011;44550;43.864;25.986;2022-08-05T17:00:38;6.70;;;2.72;;
58244;SDS011;44550;43.864;25.986;2022-08-05T17:04:47;4.30;;;3.90;;
58244;SDS011;44550;43.864;25.986;2022-08-05T17:08:53;4.35;;;3.30;;
58244;SDS011;44550;43.864;25.986;2022-08-05T17:12:53;5.57;;;3.50;;
58244;SDS011;44550;43.864;25.986;2022-08-05T17:16:54;5.47;;;4.07;;
58244;SDS011;44550;43.864;25.986;2022-08-05T17:20:58;4.70;;;4.15;;
58244;SDS011;44550;43.864;25.986;2022-08-05T17:25:03;8.55;;;6.05;;
58244;SDS011;44550;43.864;25.986;2022-08-05T17:29:18;13.25;;;7.90;;
58244;SDS011;44550;43.864;25.986;2022-08-05T17:33:37;27.20;;;13.98;;
58244;SDS011;44550;43.864;25.986;2022-08-05T17:37:46;20.73;;;8.13;;
58244;SDS011;44550;43.864;25.986;2022-08-05T17:41:50;23.05;;;10.07;;
58244;SDS011;44550;43.864;25.986;2022-08-05T17:46:09;16.98;;;7.15;;
58244;SDS011;44550;43.864;25.986;2022-08-05T17:50:10;5.43;;;4.28;;
58244;SDS011;44550;43.864;25.986;2022-08-05T17:54:23;9.02;;;6.55;;
58244;SDS011;44550;43.864;25.986;2022-08-05T17:58:25;8.48;;;5.65;;
58244;SDS011;44550;43.864;25.986;2022-08-05T18:02:29;5.45;;;4.93;;
58244;SDS011;44550;43.864;25.986;2022-08-05T18:06:28;9.82;;;5.32;;
58244;SDS011;44550;43.864;25.986;2022-08-05T18:10:29;8.77;;;5.50;;
58244;SDS011;44550;43.864;25.986;2022-08-05T18:14:32;8.02;;;4.70;;
58244;SDS011;44550;43.864;25.986;2022-08-05T18:18:32;6.63;;;4.80;;
58244;SDS011;44550;43.864;25.986;2022-08-05T18:22:36;6.25;;;4.70;;
58244;SDS011;44550;43.864;25.986;2022-08-05T18:26:51;5.45;;;4.95;;
58244;SDS011;44550;43.864;25.986;2022-08-05T18:30:53;9.52;;;5.65;;
58244;SDS011;44550;43.864;25.986;2022-08-05T18:34:53;7.63;;;5.22;;
58244;SDS011;44550;43.864;25.986;2022-08-05T18:38:53;8.43;;;4.97;;
58244;SDS011;44550;43.864;25.986;2022-08-05T18:42:53;9.55;;;4.70;;
58244;SDS011;44550;43.864;25.986;2022-08-05T18:46:56;4.95;;;4.55;;
58244;SDS011;44550;43.864;25.986;2022-08-05T18:50:56;9.95;;;4.43;;
58244;SDS011;44550;43.864;25.986;2022-08-05T18:55:31;5.80;;;4.70;;
58244;SDS011;44550;43.864;25.986;2022-08-05T18:59:31;9.40;;;4.82;;
58244;SDS011;44550;43.864;25.986;2022-08-05T19:03:53;10.38;;;5.00;;
58244;SDS011;44550;43.864;25.986;2022-08-05T19:07:52;7.10;;;5.53;;
58244;SDS011;44550;43.864;25.986;2022-08-05T19:11:55;14.15;;;5.95;;
58244;SDS011;44550;43.864;25.986;2022-08-05T19:15:57;5.95;;;5.13;;
58244;SDS011;44550;43.864;25.986;2022-08-05T19:20:02;7.70;;;5.13;;
58244;SDS011;44550;43.864;25.986;2022-08-05T19:24:07;5.53;;;5.03;;
58244;SDS011;44550;43.864;25.986;2022-08-05T19:28:09;6.15;;;4.80;;
58244;SDS011;44550;43.864;25.986;2022-08-05T19:32:10;5.28;;;4.82;;
58244;SDS011;44550;43.864;25.986;2022-08-05T19:36:14;5.20;;;4.60;;
58244;SDS011;44550;43.864;25.986;2022-08-05T19:40:18;5.25;;;4.80;;
58244;SDS011;44550;43.864;25.986;2022-08-05T19:44:20;6.63;;;5.03;;
58244;SDS011;44550;43.864;25.986;2022-08-05T19:48:25;6.05;;;4.72;;
58244;SDS011;44550;43.864;25.986;2022-08-05T19:52:27;7.18;;;4.43;;
58244;SDS011;44550;43.864;25.986;2022-08-05T19:56:28;7.35;;;5.57;;
58244;SDS011;44550;43.864;25.986;2022-08-05T20:00:33;7.35;;;5.15;;
58244;SDS011;44550;43.864;25.986;2022-08-05T20:04:34;5.38;;;4.90;;
58244;SDS011;44550;43.864;25.986;2022-08-05T20:08:41;5.78;;;4.88;;
58244;SDS011;44550;43.864;25.986;2022-08-05T20:12:45;7.00;;;4.68;;
58244;SDS011;44550;43.864;25.986;2022-08-05T20:16:46;5.25;;;4.75;;
58244;SDS011;44550;43.864;25.986;2022-08-05T20:20:52;5.90;;;4.93;;
58244;SDS011;44550;43.864;25.986;2022-08-05T20:24:55;6.00;;;5.40;;
58244;SDS011;44550;43.864;25.986;2022-08-05T20:28:55;5.68;;;4.88;;
58244;SDS011;44550;43.864;25.986;2022-08-05T20:32:57;5.07;;;4.68;;
58244;SDS011;44550;43.864;25.986;2022-08-05T20:36:59;9.57;;;6.10;;
58244;SDS011;44550;43.864;25.986;2022-08-05T20:41:01;8.30;;;5.10;;
58244;SDS011;44550;43.864;25.986;2022-08-05T20:45:04;7.13;;;4.93;;
58244;SDS011;44550;43.864;25.986;2022-08-05T20:49:05;10.38;;;4.88;;
58244;SDS011;44550;43.864;25.986;2022-08-05T20:53:08;5.65;;;5.15;;
58244;SDS011;44550;43.864;25.986;2022-08-05T20:57:14;5.30;;;4.78;;
58244;SDS011;44550;43.864;25.986;2022-08-05T21:01:34;5.55;;;4.85;;
58244;SDS011;44550;43.864;25.986;2022-08-05T21:05:35;6.05;;;5.55;;
58244;SDS011;44550;43.864;25.986;2022-08-05T21:09:53;6.88;;;4.93;;
58244;SDS011;44550;43.864;25.986;2022-08-05T21:13:57;6.10;;;5.28;;
58244;SDS011;44550;43.864;25.986;2022-08-05T21:17:58;5.47;;;4.88;;
58244;SDS011;44550;43.864;25.986;2022-08-05T21:22:00;7.15;;;4.55;;
58244;SDS011;44550;43.864;25.986;2022-08-05T21:26:05;5.65;;;5.07;;
58244;SDS011;44550;43.864;25.986;2022-08-05T21:30:11;5.45;;;4.70;;
58244;SDS011;44550;43.864;25.986;2022-08-05T21:34:13;7.60;;;6.28;;
58244;SDS011;44550;43.864;25.986;2022-08-05T21:38:15;5.53;;;4.82;;
58244;SDS011;44550;43.864;25.986;2022-08-05T21:42:15;8.00;;;5.20;;
58244;SDS011;44550;43.864;25.986;2022-08-05T21:46:37;10.20;;;5.25;;
58244;SDS011;44550;43.864;25.986;2022-08-05T21:50:39;8.55;;;5.13;;
58244;SDS011;44550;43.864;25.986;2022-08-05T21:54:50;6.15;;;5.18;;
58244;SDS011;44550;43.864;25.986;2022-08-05T21:58:51;6.03;;;5.10;;
58244;SDS011;44550;43.864;25.986;2022-08-05T22:02:56;9.48;;;5.57;;
58244;SDS011;44550;43.864;25.986;2022-08-05T22:06:56;5.85;;;5.28;;
58244;SDS011;44550;43.864;25.986;2022-08-05T22:10:56;8.05;;;5.43;;
58244;SDS011;44550;43.864;25.986;2022-08-05T22:14:57;7.22;;;6.25;;
58244;SDS011;44550;43.864;25.986;2022-08-05T22:18:58;10.73;;;5.88;;
58244;SDS011;44550;43.864;25.986;2022-08-05T22:22:59;5.93;;;5.40;;
58244;SDS011;44550;43.864;25.986;2022-08-05T22:27:17;8.35;;;5.65;;
58244;SDS011;44550;43.864;25.986;2022-08-05T22:31:53;8.10;;;5.93;;
58244;SDS011;44550;43.864;25.986;2022-08-05T22:36:01;6.35;;;5.75;;
58244;SDS011;44550;43.864;25.986;2022-08-05T22:40:02;6.95;;;6.22;;
58244;SDS011;44550;43.864;25.986;2022-08-05T22:44:03;5.95;;;5.40;;
58244;SDS011;44550;43.864;25.986;2022-08-05T22:48:02;9.38;;;5.97;;
58244;SDS011;44550;43.864;25.986;2022-08-05T22:52:06;7.82;;;6.25;;
58244;SDS011;44550;43.864;25.986;2022-08-05T22:56:18;11.25;;;5.95;;
58244;SDS011;44550;43.864;25.986;2022-08-05T23:00:27;11.85;;;6.88;;
58244;SDS011;44550;43.864;25.986;2022-08-05T23:04:27;7.68;;;6.30;;
58244;SDS011;44550;43.864;25.986;2022-08-05T23:08:31;6.55;;;5.95;;
58244;SDS011;44550;43.864;25.986;2022-08-05T23:12:31;8.18;;;6.70;;
58244;SDS011;44550;43.864;25.986;2022-08-05T23:16:32;6.50;;;5.70;;
58244;SDS011;44550;43.864;25.986;2022-08-05T23:20:48;8.68;;;6.35;;
58244;SDS011;44550;43.864;25.986;2022-08-05T23:24:50;8.93;;;6.53;;
58244;SDS011;44550;43.864;25.986;2022-08-05T23:28:50;6.95;;;6.25;;
58244;SDS011;44550;43.864;25.986;2022-08-05T23:32:50;10.07;;;6.03;;
58244;SDS011;44550;43.864;25.986;2022-08-05T23:36:49;8.07;;;6.45;;
58244;SDS011;44550;43.864;25.986;2022-08-05T23:40:53;11.82;;;7.93;;
58244;SDS011;44550;43.864;25.986;2022-08-05T23:44:52;7.00;;;6.40;;
58244;SDS011;44550;43.864;25.986;2022-08-05T23:48:53;8.98;;;7.18;;
58244;SDS011;44550;43.864;25.986;2022-08-05T23:52:58;7.85;;;6.85;;
58244;SDS011;44550;43.864;25.986;2022-08-05T23:57:01;8.75;;;6.60;;
